createdAt,value
2017-08-15T00:02:07.676Z,6.00
2017-08-15T00:04:35.529Z,8.33
2017-08-15T00:07:02.964Z,4.83
2017-08-15T00:09:30.402Z,5.90
2017-08-15T00:11:57.916Z,6.03
2017-08-15T00:14:25.365Z,5.70
2017-08-15T00:16:52.796Z,4.70
2017-08-15T00:19:20.395Z,5.77
2017-08-15T00:21:47.828Z,5.67
2017-08-15T00:24:15.299Z,5.90
2017-08-15T00:26:42.737Z,5.30
2017-08-15T00:29:10.174Z,5.57
2017-08-15T00:31:37.599Z,5.07
2017-08-15T00:34:05.029Z,4.23
2017-08-15T00:36:32.477Z,4.70
2017-08-15T00:38:59.945Z,5.00
2017-08-15T00:41:27.424Z,4.80
2017-08-15T00:43:54.856Z,4.73
2017-08-15T00:46:23.047Z,5.00
2017-08-15T00:48:50.476Z,5.10
2017-08-15T00:51:17.932Z,5.60
2017-08-15T00:53:45.363Z,4.80
2017-08-15T00:56:12.795Z,5.20
2017-08-15T00:58:40.228Z,5.03
2017-08-15T01:01:08.476Z,4.33
2017-08-15T01:03:36.678Z,4.70
2017-08-15T01:06:04.125Z,4.80
2017-08-15T01:08:31.583Z,6.20
2017-08-15T01:10:59.011Z,4.83
2017-08-15T01:13:26.444Z,4.70
2017-08-15T01:15:53.892Z,4.37
2017-08-15T01:18:21.345Z,4.63
2017-08-15T01:20:48.779Z,4.70
2017-08-15T01:23:16.203Z,4.37
2017-08-15T01:25:43.657Z,5.33
2017-08-15T01:28:11.091Z,4.87
2017-08-15T01:30:38.540Z,4.90
2017-08-15T01:33:05.960Z,4.10
2017-08-15T01:35:34.181Z,4.90
2017-08-15T01:38:01.639Z,4.93
2017-08-15T01:40:29.113Z,5.00
2017-08-15T01:42:56.551Z,4.43
2017-08-15T01:45:24.756Z,5.60
2017-08-15T01:47:52.203Z,4.83
2017-08-15T01:50:19.660Z,4.67
2017-08-15T01:52:47.189Z,5.37
2017-08-15T01:55:14.664Z,4.87
2017-08-15T01:57:42.113Z,5.03
2017-08-15T02:00:10.308Z,5.17
2017-08-15T02:02:37.797Z,4.37
2017-08-15T02:05:05.292Z,4.63
2017-08-15T02:07:32.734Z,5.37
2017-08-15T02:10:00.240Z,4.70
2017-08-15T02:12:27.776Z,5.30
2017-08-15T02:14:55.222Z,5.10
2017-08-15T02:17:22.664Z,4.80
2017-08-15T02:19:50.083Z,4.63
2017-08-15T02:22:17.547Z,5.60
2017-08-15T02:24:44.992Z,5.37
2017-08-15T02:27:12.542Z,5.07
2017-08-15T02:29:40.064Z,6.10
2017-08-15T02:32:07.484Z,5.37
2017-08-15T02:34:34.961Z,5.50
2017-08-15T02:37:02.400Z,5.73
2017-08-15T02:39:29.922Z,5.50
2017-08-15T02:41:57.367Z,5.20
2017-08-15T02:44:24.843Z,5.40
2017-08-15T02:46:53.102Z,5.57
2017-08-15T02:49:20.560Z,5.63
2017-08-15T02:51:48.740Z,5.53
2017-08-15T02:54:16.357Z,4.90
2017-08-15T02:56:43.841Z,5.33
2017-08-15T02:59:11.545Z,5.20
2017-08-15T03:01:39.767Z,5.77
2017-08-15T03:04:07.256Z,5.00
2017-08-15T03:06:35.461Z,6.73
2017-08-15T03:09:02.892Z,5.93
2017-08-15T03:11:30.331Z,5.37
2017-08-15T03:13:57.828Z,5.60
2017-08-15T03:16:25.374Z,5.93
2017-08-15T03:18:52.807Z,5.80
2017-08-15T03:21:20.244Z,5.50
2017-08-15T03:23:47.702Z,5.57
2017-08-15T03:26:15.156Z,5.47
2017-08-15T03:28:42.583Z,5.80
2017-08-15T03:31:10.012Z,6.00
2017-08-15T03:33:37.451Z,5.87
2017-08-15T03:36:04.883Z,5.07
2017-08-15T03:38:32.332Z,6.10
2017-08-15T03:40:59.761Z,6.60
2017-08-15T03:43:27.454Z,6.27
2017-08-15T03:45:55.010Z,6.50
2017-08-15T03:48:23.212Z,5.57
2017-08-15T03:50:50.647Z,4.73
2017-08-15T03:53:18.096Z,5.47
2017-08-15T03:55:45.556Z,6.67
2017-08-15T03:58:12.992Z,6.07
2017-08-15T04:00:40.420Z,6.60
2017-08-15T04:03:07.931Z,7.10
2017-08-15T04:05:36.252Z,6.50
2017-08-15T04:08:03.707Z,7.50
2017-08-15T04:10:31.147Z,8.23
2017-08-15T04:12:58.600Z,7.10
2017-08-15T04:15:26.046Z,5.47
2017-08-15T04:17:53.482Z,7.20
2017-08-15T04:20:20.911Z,6.30
2017-08-15T04:22:48.343Z,5.57
2017-08-15T04:25:15.791Z,6.20
2017-08-15T04:27:43.464Z,6.73
2017-08-15T04:30:10.895Z,6.40
2017-08-15T04:32:38.328Z,6.00
2017-08-15T04:35:05.767Z,6.30
2017-08-15T04:37:33.201Z,6.63
2017-08-15T04:40:00.667Z,6.33
2017-08-15T04:42:28.112Z,5.50
2017-08-15T04:44:55.548Z,5.40
2017-08-15T04:47:22.972Z,5.47
2017-08-15T04:49:50.767Z,5.40
2017-08-15T04:52:19.024Z,5.90
2017-08-15T04:54:46.460Z,5.63
2017-08-15T04:57:13.896Z,6.30
2017-08-15T04:59:41.323Z,5.10
2017-08-15T05:02:08.799Z,5.77
2017-08-15T05:04:37.008Z,5.43
2017-08-15T05:07:04.441Z,5.70
2017-08-15T05:09:31.875Z,6.47
2017-08-15T05:11:59.323Z,5.57
2017-08-15T05:14:26.749Z,6.07
2017-08-15T05:16:54.190Z,5.03
2017-08-15T05:19:21.619Z,5.10
2017-08-15T05:21:49.831Z,5.30
2017-08-15T05:24:17.277Z,5.80
2017-08-15T05:26:44.726Z,5.40
2017-08-15T05:29:12.197Z,5.77
2017-08-15T05:31:39.645Z,6.50
2017-08-15T05:34:07.367Z,5.53
2017-08-15T05:36:34.791Z,6.30
2017-08-15T05:39:02.252Z,5.87
2017-08-15T05:41:29.707Z,6.67
2017-08-15T05:43:57.132Z,6.10
2017-08-15T05:46:24.560Z,5.97
2017-08-15T05:48:52.072Z,6.53
2017-08-15T05:51:19.652Z,5.33
2017-08-15T05:53:47.079Z,5.57
2017-08-15T05:56:14.531Z,5.53
2017-08-15T05:58:42.015Z,6.73
2017-08-15T06:01:09.452Z,6.17
2017-08-15T06:03:36.899Z,6.00
2017-08-15T06:06:04.447Z,6.33
2017-08-15T06:08:31.888Z,5.10
2017-08-15T06:10:59.315Z,5.43
2017-08-15T06:13:26.773Z,5.60
2017-08-15T06:15:54.215Z,5.60
2017-08-15T06:18:21.652Z,5.10
2017-08-15T06:20:49.098Z,5.20
2017-08-15T06:23:16.647Z,4.70
2017-08-15T06:25:44.076Z,5.33
2017-08-15T06:28:11.495Z,4.70
2017-08-15T06:30:38.952Z,5.60
2017-08-15T06:33:06.409Z,4.83
2017-08-15T06:35:33.952Z,4.87
2017-08-15T06:38:01.385Z,4.77
2017-08-15T06:40:28.842Z,4.40
2017-08-15T06:42:56.525Z,4.67
2017-08-15T06:45:23.959Z,4.30
2017-08-15T06:47:52.163Z,4.07
2017-08-15T06:50:19.608Z,4.90
2017-08-15T06:52:47.100Z,4.20
2017-08-15T06:55:15.408Z,5.20
2017-08-15T06:57:42.853Z,4.43
2017-08-15T07:00:10.365Z,4.30
2017-08-15T07:02:37.868Z,4.30
2017-08-15T07:05:05.292Z,3.70
2017-08-15T07:07:32.853Z,3.17
2017-08-15T07:10:00.392Z,3.83
2017-08-15T07:12:27.827Z,3.93
2017-08-15T07:14:55.285Z,4.70
2017-08-15T07:17:22.741Z,3.80
2017-08-15T07:19:50.956Z,3.80
2017-08-15T07:22:18.492Z,4.20
2017-08-15T07:24:45.972Z,5.20
2017-08-15T07:27:13.420Z,3.80
2017-08-15T07:29:40.862Z,4.47
2017-08-15T07:32:08.297Z,4.07
2017-08-15T07:34:35.758Z,3.73
2017-08-15T07:37:03.184Z,4.50
2017-08-15T07:39:30.651Z,4.43
2017-08-15T07:41:58.075Z,4.40
2017-08-15T07:44:25.537Z,3.67
2017-08-15T07:46:53.739Z,4.13
2017-08-15T07:49:21.168Z,4.00
2017-08-15T07:51:48.675Z,3.03
2017-08-15T07:54:16.299Z,4.00
2017-08-15T07:56:43.739Z,4.23
2017-08-15T07:59:11.176Z,3.47
2017-08-15T08:01:38.621Z,3.60
2017-08-15T08:04:06.059Z,3.67
2017-08-15T08:06:33.491Z,4.33
2017-08-15T08:09:00.923Z,3.70
2017-08-15T08:11:28.399Z,5.03
2017-08-15T08:13:55.840Z,3.50
2017-08-15T08:16:23.271Z,3.50
2017-08-15T08:18:50.705Z,4.00
2017-08-15T08:21:18.227Z,3.50
2017-08-15T08:23:45.734Z,4.00
2017-08-15T08:26:13.168Z,3.87
2017-08-15T08:28:40.587Z,3.57
2017-08-15T08:31:08.015Z,4.57
2017-08-15T08:33:35.447Z,4.30
2017-08-15T08:36:03.018Z,3.30
2017-08-15T08:38:30.483Z,4.20
2017-08-15T08:40:57.916Z,3.30
2017-08-15T08:43:25.366Z,3.43
2017-08-15T08:45:53.404Z,4.10
2017-08-15T08:48:20.856Z,3.40
2017-08-15T08:50:48.300Z,3.70
2017-08-15T08:53:15.781Z,4.20
2017-08-15T08:55:43.991Z,3.50
2017-08-15T08:58:11.449Z,4.00
2017-08-15T09:00:38.912Z,12.47
2017-08-15T09:03:07.104Z,6.20
2017-08-15T09:05:34.535Z,3.80
2017-08-15T09:08:02.009Z,3.63
2017-08-15T09:10:29.480Z,3.67
2017-08-15T09:12:56.927Z,3.47
2017-08-15T09:15:24.383Z,3.10
2017-08-15T09:17:52.587Z,3.53
2017-08-15T09:20:20.016Z,3.50
2017-08-15T09:22:47.453Z,3.40
2017-08-15T09:25:14.888Z,3.73
2017-08-15T09:27:43.112Z,4.10
2017-08-15T09:30:10.643Z,3.20
2017-08-15T09:32:38.056Z,3.17
2017-08-15T09:35:05.507Z,3.27
2017-08-15T09:37:33.064Z,3.90
2017-08-15T09:40:00.539Z,3.70
2017-08-15T09:42:28.072Z,3.40
2017-08-15T09:44:55.525Z,3.13
2017-08-15T09:47:22.958Z,3.37
2017-08-15T09:49:50.421Z,4.13
2017-08-15T09:52:17.854Z,3.20
2017-08-15T09:54:45.295Z,3.63
2017-08-15T09:57:12.720Z,4.67
2017-08-15T09:59:40.160Z,5.37
2017-08-15T10:02:07.586Z,3.30
2017-08-15T10:04:35.056Z,3.83
2017-08-15T10:07:02.491Z,3.43
2017-08-15T10:09:29.948Z,3.23
2017-08-15T10:11:57.380Z,3.57
2017-08-15T10:14:24.828Z,3.37
2017-08-15T10:16:52.256Z,3.33
2017-08-15T10:19:19.698Z,3.57
2017-08-15T10:21:47.136Z,2.87
2017-08-15T10:24:14.580Z,3.40
2017-08-15T10:26:42.044Z,3.50
2017-08-15T10:29:09.490Z,3.17
2017-08-15T10:31:36.911Z,3.30
2017-08-15T10:34:04.360Z,2.90
2017-08-15T10:36:31.808Z,3.17
2017-08-15T10:38:59.249Z,3.10
2017-08-15T10:41:26.704Z,3.40
2017-08-15T10:43:54.137Z,3.13
2017-08-15T10:46:21.584Z,3.67
2017-08-15T10:48:49.004Z,3.40
2017-08-15T10:51:16.508Z,3.33
2017-08-15T10:53:43.931Z,3.07
2017-08-15T10:56:22.039Z,5.20
2017-08-15T10:58:49.467Z,5.00
2017-08-15T11:01:17.700Z,3.57
2017-08-15T11:03:45.127Z,3.50
2017-08-15T11:06:12.555Z,2.87
2017-08-15T11:08:40.032Z,3.43
2017-08-15T11:11:07.924Z,3.23
2017-08-15T11:13:36.151Z,2.93
2017-08-15T11:16:03.581Z,3.40
2017-08-15T11:18:31.032Z,2.97
2017-08-15T11:20:58.487Z,3.37
2017-08-15T11:23:25.992Z,3.30
2017-08-15T11:25:53.440Z,2.67
2017-08-15T11:28:20.896Z,3.37
2017-08-15T11:30:48.321Z,3.57
2017-08-15T11:33:15.898Z,2.90
2017-08-15T11:35:43.324Z,4.33
2017-08-15T11:38:10.782Z,3.40
2017-08-15T11:40:38.602Z,17.30
2017-08-15T11:43:06.011Z,4.30
2017-08-15T11:45:33.461Z,4.30
2017-08-15T11:48:00.906Z,3.53
2017-08-15T11:50:28.396Z,3.90
2017-08-15T11:52:55.944Z,2.90
2017-08-15T11:55:23.391Z,3.40
2017-08-15T11:57:51.396Z,2.97
2017-08-15T12:00:18.836Z,3.47
2017-08-15T12:02:46.320Z,3.67
2017-08-15T12:05:13.768Z,2.77
2017-08-15T12:07:41.296Z,3.23
2017-08-15T12:10:08.899Z,3.70
2017-08-15T12:12:36.352Z,3.10
2017-08-15T12:15:04.245Z,3.33
2017-08-15T12:17:31.688Z,3.40
2017-08-15T12:19:59.123Z,3.80
2017-08-15T12:22:26.600Z,3.43
2017-08-15T12:24:54.124Z,3.20
2017-08-15T12:27:21.553Z,3.37
2017-08-15T12:29:49.821Z,2.97
2017-08-15T12:32:17.265Z,3.10
2017-08-15T12:34:44.762Z,3.50
2017-08-15T12:37:12.959Z,3.67
2017-08-15T12:39:40.400Z,4.33
2017-08-15T12:42:07.844Z,3.20
2017-08-15T12:44:35.282Z,3.47
2017-08-15T12:47:02.742Z,3.83
2017-08-15T12:49:30.159Z,4.10
2017-08-15T12:51:57.599Z,4.13
2017-08-15T12:54:25.060Z,3.53
2017-08-15T12:56:52.492Z,2.50
2017-08-15T12:59:19.947Z,3.57
2017-08-15T13:01:47.404Z,3.63
2017-08-15T13:04:14.841Z,3.00
2017-08-15T13:06:42.289Z,3.23
2017-08-15T13:09:09.743Z,3.60
2017-08-15T13:11:37.276Z,3.00
2017-08-15T13:14:04.740Z,3.33
2017-08-15T13:16:32.971Z,3.33
2017-08-15T13:19:00.492Z,3.90
2017-08-15T13:21:28.074Z,4.50
2017-08-15T13:23:55.508Z,3.57
2017-08-15T13:26:22.961Z,3.37
2017-08-15T13:28:50.403Z,3.20
2017-08-15T13:31:17.839Z,3.83
2017-08-15T13:33:45.264Z,3.57
2017-08-15T13:36:12.701Z,3.47
2017-08-15T13:38:40.125Z,3.00
2017-08-15T13:41:07.551Z,3.00
2017-08-15T13:43:34.999Z,4.07
2017-08-15T13:46:02.435Z,3.40
2017-08-15T13:48:29.872Z,3.00
2017-08-15T13:50:58.076Z,2.77
2017-08-15T13:53:25.510Z,3.30
2017-08-15T13:55:53.103Z,5.13
2017-08-15T13:58:20.525Z,4.10
2017-08-15T14:00:47.987Z,3.70
2017-08-15T14:03:15.409Z,8.23
2017-08-15T14:05:42.836Z,3.87
2017-08-15T14:08:10.280Z,3.97
2017-08-15T14:10:37.741Z,3.07
2017-08-15T14:13:05.175Z,4.13
2017-08-15T14:15:32.616Z,3.40
2017-08-15T14:18:00.070Z,3.03
2017-08-15T14:20:27.505Z,3.43
2017-08-15T14:22:54.943Z,3.50
2017-08-15T14:25:22.372Z,3.33
2017-08-15T14:27:49.805Z,3.87
2017-08-15T14:30:17.353Z,3.80
2017-08-15T14:32:44.783Z,3.50
2017-08-15T14:35:12.219Z,4.60
2017-08-15T14:37:39.763Z,2.53
2017-08-15T14:40:07.188Z,3.00
2017-08-15T14:42:35.408Z,3.57
2017-08-15T14:45:02.840Z,3.67
2017-08-15T14:47:30.307Z,3.00
2017-08-15T14:49:57.736Z,3.03
2017-08-15T14:52:25.183Z,3.20
2017-08-15T14:54:52.607Z,3.50
2017-08-15T14:57:20.034Z,3.00
2017-08-15T14:59:47.468Z,3.70
2017-08-15T15:02:14.891Z,3.83
2017-08-15T15:04:42.329Z,3.60
2017-08-15T15:07:09.761Z,3.47
2017-08-15T15:09:37.960Z,3.33
2017-08-15T15:12:05.401Z,3.53
2017-08-15T15:14:32.819Z,3.30
2017-08-15T15:17:00.261Z,3.30
2017-08-15T15:19:28.464Z,3.37
2017-08-15T15:21:55.968Z,3.40
2017-08-15T15:24:23.450Z,3.73
2017-08-15T15:26:50.876Z,4.33
2017-08-15T15:29:18.329Z,2.83
2017-08-15T15:31:45.759Z,4.03
2017-08-15T15:34:13.191Z,3.70
2017-08-15T15:36:40.788Z,3.77
2017-08-15T15:39:08.207Z,3.80
2017-08-15T15:41:35.648Z,4.33
2017-08-15T15:44:03.104Z,6.27
2017-08-15T15:46:30.561Z,4.93
2017-08-15T15:48:57.996Z,5.87
2017-08-15T15:51:25.436Z,5.73
2017-08-15T15:53:52.860Z,4.60
2017-08-15T15:56:20.292Z,5.80
2017-08-15T15:58:47.748Z,3.30
2017-08-15T16:01:15.208Z,3.40
2017-08-15T16:03:42.631Z,4.07
2017-08-15T16:06:10.055Z,4.67
2017-08-15T16:08:37.491Z,4.60
2017-08-15T16:11:04.932Z,3.50
2017-08-15T16:13:32.380Z,3.20
2017-08-15T16:15:59.852Z,3.03
2017-08-15T16:18:27.370Z,3.33
2017-08-15T16:20:54.792Z,3.43
2017-08-15T16:23:22.289Z,3.50
2017-08-15T16:25:49.716Z,4.20
2017-08-15T16:28:17.227Z,7.30
2017-08-15T16:30:44.836Z,5.20
2017-08-15T16:33:12.272Z,4.37
2017-08-15T16:35:39.727Z,4.87
2017-08-15T16:38:07.265Z,3.93
2017-08-15T16:40:34.697Z,3.73
2017-08-15T16:43:02.199Z,4.60
2017-08-15T16:45:29.632Z,3.83
2017-08-15T16:47:57.060Z,5.60
2017-08-15T16:50:25.264Z,4.00
2017-08-15T16:52:52.772Z,3.47
2017-08-15T16:55:20.203Z,3.40
2017-08-15T16:57:57.821Z,3.73
2017-08-15T17:00:25.255Z,3.80
2017-08-15T17:02:52.691Z,3.57
2017-08-15T17:05:20.136Z,3.00
2017-08-15T17:07:47.628Z,3.80
2017-08-15T17:10:15.076Z,3.33
2017-08-15T17:12:42.531Z,3.67
2017-08-15T17:15:10.068Z,3.83
2017-08-15T17:17:37.483Z,4.00
2017-08-15T17:20:04.931Z,3.60
2017-08-15T17:22:32.368Z,4.10
2017-08-15T17:24:59.824Z,4.50
2017-08-15T17:27:27.279Z,4.10
2017-08-15T17:29:54.925Z,3.93
2017-08-15T17:32:22.467Z,4.30
2017-08-15T17:34:50.040Z,3.40
2017-08-15T17:37:17.481Z,3.67
2017-08-15T17:39:45.696Z,3.33
2017-08-15T17:42:13.137Z,3.17
2017-08-15T17:44:40.597Z,3.40
2017-08-15T17:47:08.147Z,3.90
2017-08-15T17:49:35.709Z,3.60
2017-08-15T17:52:03.923Z,3.37
2017-08-15T17:54:31.356Z,3.47
2017-08-15T17:56:58.814Z,3.50
2017-08-15T17:59:26.358Z,4.30
2017-08-15T18:01:54.832Z,4.33
2017-08-15T18:04:22.396Z,5.00
2017-08-15T18:06:49.840Z,3.77
2017-08-15T18:09:17.287Z,4.87
2017-08-15T18:11:44.820Z,4.53
2017-08-15T18:14:12.312Z,4.23
2017-08-15T18:16:39.759Z,4.00
2017-08-15T18:19:07.251Z,4.60
2017-08-15T18:21:34.743Z,4.03
2017-08-15T18:24:02.254Z,4.60
2017-08-15T18:26:30.508Z,3.90
2017-08-15T18:28:57.965Z,4.83
2017-08-15T18:31:26.174Z,3.80
2017-08-15T18:33:53.643Z,3.70
2017-08-15T18:36:21.084Z,4.10
2017-08-15T18:38:48.604Z,4.10
2017-08-15T18:41:16.027Z,3.57
2017-08-15T18:43:43.455Z,3.63
2017-08-15T18:46:11.653Z,4.37
2017-08-15T18:48:39.280Z,4.80
2017-08-15T18:51:06.787Z,3.43
2017-08-15T18:53:34.994Z,3.57
2017-08-15T18:56:02.467Z,4.00
2017-08-15T18:58:29.912Z,4.50
2017-08-15T19:00:57.469Z,3.77
2017-08-15T19:03:24.884Z,4.53
2017-08-15T19:05:52.376Z,4.53
2017-08-15T19:08:20.568Z,4.77
2017-08-15T19:10:48.044Z,4.47
2017-08-15T19:13:15.504Z,4.40
2017-08-15T19:15:43.039Z,4.47
2017-08-15T19:18:10.489Z,4.33
2017-08-15T19:20:37.944Z,4.90
2017-08-15T19:23:05.474Z,4.07
2017-08-15T19:25:33.004Z,4.17
2017-08-15T19:28:00.435Z,4.80
2017-08-15T19:30:28.279Z,4.30
2017-08-15T19:32:55.748Z,4.70
2017-08-15T19:35:23.191Z,4.70
2017-08-15T19:37:50.647Z,6.37
2017-08-15T19:40:18.872Z,4.63
2017-08-15T19:42:46.312Z,5.50
2017-08-15T19:45:13.891Z,6.03
2017-08-15T19:47:41.324Z,5.17
2017-08-15T19:50:08.756Z,6.13
2017-08-15T19:52:36.190Z,5.57
2017-08-15T19:55:03.643Z,5.03
2017-08-15T19:57:31.047Z,5.80
2017-08-15T19:59:58.484Z,5.33
2017-08-15T20:02:25.931Z,5.10
2017-08-15T20:04:53.365Z,5.57
2017-08-15T20:07:20.793Z,5.30
2017-08-15T20:09:48.228Z,5.87
2017-08-15T20:12:16.441Z,6.33
2017-08-15T20:14:43.872Z,5.70
2017-08-15T20:17:11.347Z,5.73
2017-08-15T20:19:38.873Z,6.07
2017-08-15T20:22:06.338Z,6.77
2017-08-15T20:24:33.786Z,7.00
2017-08-15T20:27:01.224Z,7.73
2017-08-15T20:29:28.672Z,6.03
2017-08-15T20:31:56.107Z,6.43
2017-08-15T20:34:23.730Z,8.57
2017-08-15T20:36:52.193Z,5.90
2017-08-15T20:39:20.454Z,6.10
2017-08-15T20:41:47.888Z,6.50
2017-08-15T20:44:15.307Z,6.30
2017-08-15T20:46:42.801Z,7.10
2017-08-15T20:49:10.321Z,6.53
2017-08-15T20:51:37.818Z,6.90
2017-08-15T20:54:05.325Z,7.43
2017-08-15T20:56:32.857Z,7.60
2017-08-15T20:59:00.472Z,6.77
2017-08-15T21:01:28.686Z,7.30
2017-08-15T21:03:56.148Z,7.17
2017-08-15T21:06:23.672Z,6.87
2017-08-15T21:08:51.103Z,7.00
2017-08-15T21:11:18.533Z,7.03
2017-08-15T21:13:45.980Z,7.90
2017-08-15T21:16:13.425Z,8.50
2017-08-15T21:18:40.895Z,7.47
2017-08-15T21:21:08.337Z,5.87
2017-08-15T21:23:35.882Z,6.43
2017-08-15T21:26:03.301Z,7.23
2017-08-15T21:28:30.725Z,7.10
2017-08-15T21:30:58.200Z,7.57
2017-08-15T21:33:25.628Z,7.07
2017-08-15T21:35:53.080Z,6.10
2017-08-15T21:38:20.516Z,7.00
2017-08-15T21:40:47.955Z,5.70
2017-08-15T21:43:15.395Z,6.20
2017-08-15T21:45:42.820Z,6.30
2017-08-15T21:48:10.307Z,5.90
2017-08-15T21:50:37.773Z,7.00
2017-08-15T21:53:06.070Z,6.80
2017-08-15T21:55:33.496Z,6.60
2017-08-15T21:58:00.934Z,5.83
2017-08-15T22:03:03.096Z,6.80
2017-08-15T22:05:30.595Z,6.50
2017-08-15T22:07:58.060Z,7.10
2017-08-15T22:10:25.606Z,6.60
2017-08-15T22:12:53.027Z,7.40
2017-08-15T22:15:20.475Z,7.80
2017-08-15T22:17:48.016Z,6.60
2017-08-15T22:20:15.466Z,7.73
2017-08-15T22:22:42.880Z,9.60
2017-08-15T22:25:10.316Z,8.87
2017-08-15T22:27:37.792Z,8.60
2017-08-15T22:30:05.255Z,7.93
2017-08-15T22:32:33.499Z,8.67
2017-08-15T22:35:00.947Z,9.10
2017-08-15T22:37:29.164Z,9.50
2017-08-15T22:39:56.605Z,8.47
2017-08-15T22:42:24.055Z,9.83
2017-08-15T22:44:51.527Z,9.20
2017-08-15T22:47:18.960Z,7.50
2017-08-15T22:49:46.410Z,9.57
2017-08-15T22:52:13.841Z,8.63
2017-08-15T22:54:41.283Z,8.07
2017-08-15T22:57:08.724Z,8.30
2017-08-15T22:59:36.152Z,8.80
2017-08-15T23:02:03.590Z,7.90
2017-08-15T23:04:31.041Z,8.13
2017-08-15T23:06:58.460Z,8.10
2017-08-15T23:09:25.920Z,8.60
2017-08-15T23:11:53.364Z,7.80
2017-08-15T23:14:20.803Z,7.93
2017-08-15T23:16:48.256Z,7.90
2017-08-15T23:19:15.702Z,7.20
2017-08-15T23:21:43.147Z,6.60
2017-08-15T23:24:10.616Z,6.23
2017-08-15T23:26:38.824Z,6.60
2017-08-15T23:29:06.256Z,6.23
2017-08-15T23:31:33.783Z,6.90
2017-08-15T23:34:01.991Z,6.77
2017-08-15T23:36:29.428Z,8.53
2017-08-15T23:38:56.886Z,6.80
2017-08-15T23:41:24.327Z,6.93
2017-08-15T23:43:51.746Z,5.87
2017-08-15T23:46:19.183Z,6.30
2017-08-15T23:48:46.656Z,6.53
2017-08-15T23:51:14.124Z,6.70
2017-08-15T23:53:41.547Z,5.57
2017-08-15T23:56:08.979Z,6.53
2017-08-15T23:58:36.427Z,5.77
